Time;durP1;ratioP1;P1;durP2;ratioP2;P2;SDS_P1;SDS_P2;PMS_P1;PMS_P2;Temp;Humidity;BMP_temperature;BMP_pressure;BME280_temperature;BME280_humidity;BME280_pressure;Samples;Min_cycle;Max_cycle;Signal;HPM_P1;HPM_P2
2022/04/18 00:03:09;;;;;;;7.75;4.00;;;;;;;;;;8466395;28;20461;-56
2022/04/18 00:07:10;;;;;;;5.63;4.00;;;;;;;;;;8466052;28;20024;-57
2022/04/18 00:11:11;;;;;;;5.40;3.87;;;;;;;;;;8448120;28;20076;-57
2022/04/18 00:15:12;;;;;;;5.40;4.07;;;;;;;;;;8466197;28;20059;-57
2022/04/18 00:19:13;;;;;;;5.53;3.90;;;;;;;;;;8465989;28;20446;-56
2022/04/18 00:23:14;;;;;;;4.80;3.73;;;;;;;;;;8466217;28;20028;-55
2022/04/18 00:27:14;;;;;;;9.03;4.30;;;;;;;;;;8465982;28;20106;-57
2022/04/18 00:31:15;;;;;;;6.30;4.43;;;;;;;;;;8465188;28;20052;-57
2022/04/18 00:35:16;;;;;;;5.90;3.87;;;;;;;;;;8466187;28;20052;-57
2022/04/18 00:39:17;;;;;;;6.50;4.53;;;;;;;;;;8447493;28;20066;-55
2022/04/18 00:43:18;;;;;;;8.00;4.77;;;;;;;;;;8465626;28;20024;-58
2022/04/18 00:47:19;;;;;;;7.90;4.10;;;;;;;;;;8465562;28;20063;-58
2022/04/18 00:51:21;;;;;;;8.80;5.70;;;;;;;;;;8465301;28;20028;-58
2022/04/18 00:55:22;;;;;;;;;;;;;;;;;;8465790;28;20028;-57
2022/04/18 00:59:23;;;;;;;8.68;3.97;;;;;;;;;;8465391;28;19904;-59
2022/04/18 01:03:24;;;;;;;7.60;4.10;;;;;;;;;;8465397;28;20423;-60
2022/04/18 01:07:25;;;;;;;6.03;3.90;;;;;;;;;;8465256;28;20092;-57
2022/04/18 01:11:26;;;;;;;5.37;4.10;;;;;;;;;;8465223;28;20366;-58
2022/04/18 01:15:27;;;;;;;5.90;4.13;;;;;;;;;;8465142;28;20031;-58
2022/04/18 01:19:28;;;;;;;6.87;4.27;;;;;;;;;;8470677;28;20026;-57
2022/04/18 01:23:28;;;;;;;4.90;3.87;;;;;;;;;;8471396;28;20508;-59
2022/04/18 01:31:49;;;;;;;8.15;3.92;;;;;;;;;;8470667;28;20066;-58
2022/04/18 01:35:50;;;;;;;5.33;3.63;;;;;;;;;;8471143;28;20024;-59
2022/04/18 01:39:51;;;;;;;5.67;3.40;;;;;;;;;;8470908;28;20420;-55
2022/04/18 01:43:52;;;;;;;7.20;3.33;;;;;;;;;;8470985;28;20477;-58
2022/04/18 01:47:53;;;;;;;4.60;3.40;;;;;;;;;;8470622;28;20028;-59
2022/04/18 01:51:54;;;;;;;5.63;3.40;;;;;;;;;;8470342;28;20034;-58
2022/04/18 01:55:55;;;;;;;5.17;4.03;;;;;;;;;;8470289;28;20047;-58
2022/04/18 01:59:56;;;;;;;3.97;3.30;;;;;;;;;;8470193;28;20050;-56
2022/04/18 02:03:57;;;;;;;5.17;3.70;;;;;;;;;;8470111;28;20466;-57
2022/04/18 02:07:58;;;;;;;8.52;3.63;;;;;;;;;;8470017;28;20236;-58
2022/04/18 02:11:59;;;;;;;6.32;3.65;;;;;;;;;;8469833;28;20118;-56
2022/04/18 02:16:00;;;;;;;6.40;4.03;;;;;;;;;;8469813;28;20385;-55
2022/04/18 02:20:01;;;;;;;8.47;3.50;;;;;;;;;;8469594;28;20031;-56
2022/04/18 02:24:02;;;;;;;6.05;3.38;;;;;;;;;;8469452;28;20489;-57
2022/04/18 02:28:03;;;;;;;7.83;3.50;;;;;;;;;;8469857;28;20024;-56
2022/04/18 02:36:24;;;;;;;4.72;3.17;;;;;;;;;;8468953;28;20088;-57
2022/04/18 02:40:25;;;;;;;5.27;3.50;;;;;;;;;;8468902;28;20023;-56
2022/04/18 02:44:26;;;;;;;6.97;3.43;;;;;;;;;;8468886;28;20027;-57
2022/04/18 02:48:29;;;;;;;5.33;3.00;;;;;;;;;;8468695;28;20028;-54
2022/04/18 02:52:31;;;;;;;9.50;3.40;;;;;;;;;;8468521;28;20072;-53
2022/04/18 02:56:32;;;;;;;5.07;3.55;;;;;;;;;;8468357;28;20023;-57
2022/04/18 03:00:33;;;;;;;5.07;2.80;;;;;;;;;;8468251;28;20111;-56
2022/04/18 03:04:34;;;;;;;6.57;3.53;;;;;;;;;;8468215;28;20101;-54
2022/04/18 03:08:35;;;;;;;7.17;3.40;;;;;;;;;;8467786;28;20045;-55
2022/04/18 03:12:36;;;;;;;4.37;3.03;;;;;;;;;;8467924;28;20632;-56
2022/04/18 03:16:37;;;;;;;4.60;3.53;;;;;;;;;;8467853;28;20024;-55
2022/04/18 03:20:37;;;;;;;7.47;3.10;;;;;;;;;;8467610;28;20032;-54
2022/04/18 03:24:39;;;;;;;4.80;3.27;;;;;;;;;;8467631;28;20032;-54
2022/04/18 03:28:40;;;;;;;4.40;2.95;;;;;;;;;;8467284;28;20472;-57
2022/04/18 03:32:40;;;;;;;6.00;3.23;;;;;;;;;;8466828;28;20047;-55
2022/04/18 03:41:01;;;;;;;4.55;3.20;;;;;;;;;;8466580;28;20119;-55
2022/04/18 03:45:04;;;;;;;5.97;3.10;;;;;;;;;;8466841;28;20019;-57
2022/04/18 03:49:05;;;;;;;5.85;3.42;;;;;;;;;;8466679;28;20466;-59
2022/04/18 03:53:06;;;;;;;5.17;3.33;;;;;;;;;;8448335;28;20042;-58
2022/04/18 03:57:07;;;;;;;4.45;3.30;;;;;;;;;;8466284;28;20023;-53
2022/04/18 04:01:08;;;;;;;5.20;3.53;;;;;;;;;;8466499;28;20039;-55
2022/04/18 04:05:09;;;;;;;4.07;3.60;;;;;;;;;;8466292;28;20112;-58
2022/04/18 04:09:10;;;;;;;5.63;3.80;;;;;;;;;;8466323;28;20028;-55
2022/04/18 04:13:11;;;;;;;5.90;3.77;;;;;;;;;;8465896;28;20077;-57
2022/04/18 04:17:12;;;;;;;5.07;3.57;;;;;;;;;;8466152;28;20034;-57
2022/04/18 04:21:13;;;;;;;6.70;3.47;;;;;;;;;;8466000;28;20034;-58
2022/04/18 04:25:14;;;;;;;7.10;4.23;;;;;;;;;;8465893;28;20482;-54
2022/04/18 04:29:15;;;;;;;6.97;4.40;;;;;;;;;;8465399;28;20031;-56
2022/04/18 04:33:16;;;;;;;6.75;4.18;;;;;;;;;;8465918;28;20347;-56
2022/04/18 04:37:17;;;;;;;6.90;4.10;;;;;;;;;;8465674;28;20106;-58
2022/04/18 04:41:18;;;;;;;6.70;3.83;;;;;;;;;;8465679;28;20073;-55
2022/04/18 04:45:19;;;;;;;8.90;4.33;;;;;;;;;;8465779;28;20028;-55
2022/04/18 04:49:20;;;;;;;7.70;3.80;;;;;;;;;;8465505;28;20454;-57
2022/04/18 04:53:21;;;;;;;8.77;4.17;;;;;;;;;;8469564;28;20106;-58
2022/04/18 04:57:22;;;;;;;6.57;3.87;;;;;;;;;;8472281;28;20404;-58
2022/04/18 05:01:23;;;;;;;8.83;4.10;;;;;;;;;;8471918;28;20023;-55
2022/04/18 05:05:24;;;;;;;5.63;3.83;;;;;;;;;;8471981;28;20024;-54
2022/04/18 05:09:25;;;;;;;6.57;3.87;;;;;;;;;;8471700;28;20069;-55
2022/04/18 05:13:27;;;;;;;6.57;3.83;;;;;;;;;;8471536;28;20493;-56
2022/04/18 05:17:27;;;;;;;;;;;;;;;;;;8472124;28;20023;-58
2022/04/18 05:21:29;;;;;;;6.40;3.80;;;;;;;;;;8471490;28;19904;-59
2022/04/18 05:25:30;;;;;;;6.80;3.75;;;;;;;;;;8471401;28;20016;-52
2022/04/18 05:29:31;;;;;;;5.37;3.90;;;;;;;;;;8470960;28;20058;-55
2022/04/18 05:33:32;;;;;;;11.17;4.33;;;;;;;;;;8471522;28;20458;-55
2022/04/18 05:37:33;;;;;;;6.82;4.55;;;;;;;;;;8470719;28;20034;-58
2022/04/18 05:41:34;;;;;;;6.70;4.50;;;;;;;;;;8471282;28;20430;-58
2022/04/18 05:45:37;;;;;;;7.63;4.40;;;;;;;;;;8470925;28;20024;-56
2022/04/18 05:49:38;;;;;;;6.72;4.50;;;;;;;;;;8470438;28;20027;-54
2022/04/18 05:53:39;;;;;;;6.93;4.60;;;;;;;;;;8470587;28;20465;-57
2022/04/18 05:57:40;;;;;;;6.80;4.63;;;;;;;;;;8470393;28;20062;-59
2022/04/18 06:01:41;;;;;;;8.03;4.90;;;;;;;;;;8470195;28;20446;-59
2022/04/18 06:05:42;;;;;;;6.83;5.13;;;;;;;;;;8469574;28;20085;-57
2022/04/18 06:09:43;;;;;;;6.67;5.07;;;;;;;;;;8469621;28;20024;-58
2022/04/18 06:13:43;;;;;;;8.67;4.93;;;;;;;;;;8469870;28;20028;-58
2022/04/18 06:17:44;;;;;;;10.00;5.40;;;;;;;;;;8469690;28;20023;-58
2022/04/18 06:21:48;;;;;;;8.57;5.27;;;;;;;;;;8469425;28;20027;-57
2022/04/18 06:25:49;;;;;;;9.10;4.95;;;;;;;;;;8469192;28;20032;-58
2022/04/18 06:29:50;;;;;;;14.13;5.97;;;;;;;;;;8468389;28;20407;-58
2022/04/18 06:33:51;;;;;;;10.40;5.23;;;;;;;;;;8469467;28;20046;-56
2022/04/18 06:37:52;;;;;;;8.23;5.40;;;;;;;;;;8468991;28;20031;-57
2022/04/18 06:41:55;;;;;;;6.80;5.17;;;;;;;;;;8469174;28;20102;-59
2022/04/18 06:45:56;;;;;;;8.60;5.45;;;;;;;;;;8468701;28;20036;-58
2022/04/18 06:49:57;;;;;;;7.77;5.40;;;;;;;;;;8468565;28;20391;-57
2022/04/18 06:53:58;;;;;;;8.73;5.10;;;;;;;;;;8468510;28;20047;-53
2022/04/18 06:57:59;;;;;;;8.07;4.90;;;;;;;;;;8468261;28;20024;-56
2022/04/18 07:02:00;;;;;;;7.57;5.07;;;;;;;;;;8468515;28;20032;-57
2022/04/18 07:06:01;;;;;;;11.65;5.65;;;;;;;;;;8449753;28;20024;-57
2022/04/18 07:10:02;;;;;;;9.57;5.43;;;;;;;;;;8468048;28;20036;-58
2022/04/18 07:14:03;;;;;;;13.90;5.83;;;;;;;;;;8467004;28;20024;-58
2022/04/18 07:18:04;;;;;;;10.05;5.53;;;;;;;;;;8467723;28;20424;-59
2022/04/18 07:22:06;;;;;;;9.63;5.47;;;;;;;;;;8468241;28;20076;-59
2022/04/18 07:26:07;;;;;;;8.82;5.20;;;;;;;;;;8448989;28;20038;-60
2022/04/18 07:30:08;;;;;;;12.43;5.47;;;;;;;;;;8466972;28;20466;-60
2022/04/18 07:34:09;;;;;;;8.15;5.43;;;;;;;;;;8466987;28;20098;-59
2022/04/18 07:42:30;;;;;;;13.65;5.38;;;;;;;;;;8467069;28;20039;-59
2022/04/18 07:46:32;;;;;;;9.10;4.90;;;;;;;;;;8467147;28;20430;-59
2022/04/18 07:54:53;;;;;;;6.90;4.70;;;;;;;;;;8466675;28;20114;-60
2022/04/18 07:58:54;;;;;;;7.67;4.63;;;;;;;;;;8466330;28;20016;-59
2022/04/18 08:02:55;;;;;;;7.20;4.55;;;;;;;;;;8466454;28;20028;-60
2022/04/18 08:06:56;;;;;;;7.70;4.23;;;;;;;;;;8466349;28;20027;-59
2022/04/18 08:10:58;;;;;;;10.13;4.57;;;;;;;;;;8466169;28;20034;-60
2022/04/18 08:14:59;;;;;;;;;;;;;;;;;;8466539;28;20015;-60
2022/04/18 08:19:00;;;;;;;5.53;4.00;;;;;;;;;;8466107;28;20431;-59
2022/04/18 08:23:01;;;;;;;6.07;4.27;;;;;;;;;;8459738;28;20354;-59
2022/04/18 08:27:01;;;;;;;6.65;4.00;;;;;;;;;;8462567;28;20248;-60
2022/04/18 08:31:02;;;;;;;11.45;5.10;;;;;;;;;;8463913;28;20134;-60
2022/04/18 08:35:04;;;;;;;7.75;4.65;;;;;;;;;;8465703;28;20077;-59
2022/04/18 08:39:05;;;;;;;4.28;3.88;;;;;;;;;;8465822;28;20019;-59
2022/04/18 08:43:05;;;;;;;3.90;3.50;;;;;;;;;;8447536;28;20519;-59
2022/04/18 08:47:07;;;;;;;3.88;3.55;;;;;;;;;;8465713;28;20027;-59
2022/04/18 08:55:27;;;;;;;4.70;4.22;;;;;;;;;;8465474;28;20034;-59
2022/04/18 08:59:28;;;;;;;4.63;4.13;;;;;;;;;;8465661;28;20339;-59
2022/04/18 09:03:29;;;;;;;4.65;4.25;;;;;;;;;;8455229;28;20111;-59
2022/04/18 09:07:30;;;;;;;5.60;4.10;;;;;;;;;;8448668;28;20019;-59
2022/04/18 09:11:32;;;;;;;5.38;4.38;;;;;;;;;;8452377;28;20035;-60
2022/04/18 09:15:41;;;;;;;4.78;3.97;;;;;;;;;;8465304;28;20016;-60
2022/04/18 09:19:42;;;;;;;4.22;3.83;;;;;;;;;;8465000;28;20117;-60
2022/04/18 09:23:43;;;;;;;4.30;3.90;;;;;;;;;;8465133;28;20466;-59
2022/04/18 09:27:54;;;;;;;4.18;3.75;;;;;;;;;;8464899;28;20024;-59
2022/04/18 09:31:58;;;;;;;3.47;3.25;;;;;;;;;;8464502;28;20419;-59
2022/04/18 09:36:10;;;;;;;3.75;3.25;;;;;;;;;;8464935;28;20016;-59
2022/04/18 09:40:11;;;;;;;3.35;3.03;;;;;;;;;;8469823;28;20480;-59
2022/04/18 09:44:12;;;;;;;5.00;3.55;;;;;;;;;;8470823;28;20031;-59
2022/04/18 09:48:15;;;;;;;7.40;3.60;;;;;;;;;;8471042;28;20016;-59
2022/04/18 09:52:17;;;;;;;3.80;3.50;;;;;;;;;;8470712;28;20080;-59
2022/04/18 09:56:19;;;;;;;3.45;3.15;;;;;;;;;;8470568;28;20020;-59
2022/04/18 10:00:20;;;;;;;3.92;3.63;;;;;;;;;;8470543;28;20106;-60
2022/04/18 10:04:21;;;;;;;3.30;3.10;;;;;;;;;;8470446;28;20027;-59
2022/04/18 10:08:22;;;;;;;3.72;3.42;;;;;;;;;;8470338;28;20041;-60
2022/04/18 10:12:23;;;;;;;3.28;3.08;;;;;;;;;;8470276;28;20031;-60
2022/04/18 10:16:25;;;;;;;3.80;3.50;;;;;;;;;;8469942;28;20445;-60
2022/04/18 10:20:47;;;;;;;3.85;3.47;;;;;;;;;;8469559;28;20027;-60
2022/04/18 10:24:53;;;;;;;3.75;3.45;;;;;;;;;;8470015;28;20016;-60
2022/04/18 10:28:55;;;;;;;3.78;3.30;;;;;;;;;;8469639;28;20099;-60
2022/04/18 10:32:56;;;;;;;3.53;2.80;;;;;;;;;;8469009;28;20112;-60
2022/04/18 10:36:58;;;;;;;4.80;3.15;;;;;;;;;;8469178;28;20019;-60
2022/04/18 10:41:14;;;;;;;3.90;3.60;;;;;;;;;;8451095;28;20027;-60
2022/04/18 10:45:19;;;;;;;3.58;3.28;;;;;;;;;;8469147;28;20022;-60
2022/04/18 10:49:21;;;;;;;3.60;3.40;;;;;;;;;;8468849;28;20454;-60
2022/04/18 10:53:25;;;;;;;3.72;3.42;;;;;;;;;;8468693;28;20032;-59
2022/04/18 10:57:30;;;;;;;3.47;3.17;;;;;;;;;;8468679;28;20478;-60
2022/04/18 11:01:37;;;;;;;3.55;3.25;;;;;;;;;;8450041;28;20108;-60
2022/04/18 11:05:38;;;;;;;5.78;3.90;;;;;;;;;;8468378;28;20019;-60
2022/04/18 11:09:42;;;;;;;4.15;3.80;;;;;;;;;;8468332;28;20011;-60
2022/04/18 11:13:43;;;;;;;4.28;3.20;;;;;;;;;;8468531;28;20028;-58
2022/04/18 11:17:44;;;;;;;3.67;3.38;;;;;;;;;;8468041;28;20103;-60
2022/04/18 11:21:55;;;;;;;4.25;3.58;;;;;;;;;;8467848;28;20027;-60
2022/04/18 11:25:56;;;;;;;4.57;3.40;;;;;;;;;;8467699;28;20015;-60
2022/04/18 11:29:57;;;;;;;5.82;3.90;;;;;;;;;;8467288;28;20070;-60
2022/04/18 11:34:02;;;;;;;4.40;4.00;;;;;;;;;;8467447;28;20020;-59
2022/04/18 11:38:10;;;;;;;3.92;3.60;;;;;;;;;;8467585;28;20020;-59
2022/04/18 11:42:15;;;;;;;4.20;3.80;;;;;;;;;;8467293;28;20023;-60
2022/04/18 11:46:16;;;;;;;4.85;4.35;;;;;;;;;;8467318;28;20027;-59
2022/04/18 11:50:21;;;;;;;;;;;;;;;;;;8467391;28;20020;-59
2022/04/18 11:54:22;;;;;;;4.30;3.90;;;;;;;;;;8466700;28;19953;-59
2022/04/18 11:58:23;;;;;;;5.15;3.72;;;;;;;;;;8466718;28;20065;-59
2022/04/18 12:06:45;;;;;;;5.40;3.58;;;;;;;;;;8466612;28;20031;-59
2022/04/18 12:10:46;;;;;;;6.88;3.88;;;;;;;;;;8466405;28;20023;-61
2022/04/18 12:14:47;;;;;;;4.45;3.60;;;;;;;;;;8466373;28;20019;-59
2022/04/18 12:18:51;;;;;;;6.85;3.90;;;;;;;;;;8466100;28;20020;-59
2022/04/18 12:22:58;;;;;;;4.55;3.55;;;;;;;;;;8466072;28;20396;-59
2022/04/18 12:26:59;;;;;;;4.30;3.42;;;;;;;;;;8447827;28;20453;-59
2022/04/18 12:31:00;;;;;;;5.97;3.80;;;;;;;;;;8447377;28;20100;-59
2022/04/18 12:35:01;;;;;;;5.70;4.40;;;;;;;;;;8447678;28;20050;-59
2022/04/18 12:39:03;;;;;;;8.35;4.50;;;;;;;;;;8465621;28;20019;-59
2022/04/18 12:43:05;;;;;;;5.38;4.20;;;;;;;;;;8465649;28;20028;-59
2022/04/18 12:47:17;;;;;;;5.50;3.97;;;;;;;;;;8465742;28;20020;-59
2022/04/18 12:51:18;;;;;;;5.82;4.05;;;;;;;;;;8465659;28;20031;-62
2022/04/18 12:55:26;;;;;;;6.35;4.40;;;;;;;;;;8447831;28;20366;-59
2022/04/18 12:59:30;;;;;;;7.63;4.30;;;;;;;;;;8465663;28;20012;-59
2022/04/18 13:03:40;;;;;;;6.45;4.22;;;;;;;;;;8465567;28;20059;-59
2022/04/18 13:07:44;;;;;;;7.30;4.50;;;;;;;;;;8465544;28;20519;-59
2022/04/18 13:11:46;;;;;;;6.75;4.75;;;;;;;;;;8465277;28;20020;-59
2022/04/18 13:15:48;;;;;;;7.43;4.18;;;;;;;;;;8454026;28;20065;-59
2022/04/18 13:19:49;;;;;;;7.93;4.55;;;;;;;;;;8472240;28;20035;-59
2022/04/18 13:23:50;;;;;;;7.72;4.95;;;;;;;;;;8471644;28;20023;-59
2022/04/18 13:27:53;;;;;;;5.63;4.22;;;;;;;;;;8471541;28;20493;-59
2022/04/18 13:31:54;;;;;;;7.60;3.80;;;;;;;;;;8471086;28;20059;-59
2022/04/18 13:40:16;;;;;;;5.90;4.10;;;;;;;;;;8470974;28;20039;-59
2022/04/18 13:44:17;;;;;;;6.80;4.15;;;;;;;;;;8471066;28;20012;-59
2022/04/18 13:48:19;;;;;;;6.15;3.97;;;;;;;;;;8452586;28;20081;-53
2022/04/18 13:52:20;;;;;;;7.57;3.85;;;;;;;;;;8452456;28;20031;-56
2022/04/18 13:56:21;;;;;;;6.60;4.40;;;;;;;;;;8470612;28;20027;-57
2022/04/18 14:00:23;;;;;;;6.43;4.35;;;;;;;;;;8470280;28;20024;-55
2022/04/18 14:04:23;;;;;;;6.28;4.38;;;;;;;;;;8470473;28;20012;-55
2022/04/18 14:08:25;;;;;;;6.13;4.05;;;;;;;;;;8470219;28;20020;-54
2022/04/18 14:12:26;;;;;;;5.28;4.38;;;;;;;;;;8451867;28;20056;-54
2022/04/18 14:20:46;;;;;;;7.50;3.90;;;;;;;;;;8469529;28;20049;-52
2022/04/18 14:24:47;;;;;;;5.63;3.55;;;;;;;;;;8469539;28;20016;-55
2022/04/18 14:28:49;;;;;;;4.30;3.42;;;;;;;;;;8465152;28;20023;-62
2022/04/18 14:32:49;;;;;;;4.95;3.72;;;;;;;;;;8468734;28;20478;-60
2022/04/18 14:36:51;;;;;;;4.38;3.83;;;;;;;;;;8465267;28;20034;-60
2022/04/18 14:40:52;;;;;;;6.03;4.13;;;;;;;;;;8468934;28;20031;-60
2022/04/18 14:44:53;;;;;;;7.25;4.28;;;;;;;;;;8447692;28;20106;-62
2022/04/18 14:48:55;;;;;;;5.68;3.90;;;;;;;;;;8446210;28;20028;-62
2022/04/18 14:52:56;;;;;;;5.20;3.45;;;;;;;;;;8436010;28;20023;-62
2022/04/18 14:56:56;;;;;;;4.78;3.60;;;;;;;;;;8448526;28;20127;-62
2022/04/18 15:00:57;;;;;;;7.63;4.40;;;;;;;;;;8455024;28;20032;-62
2022/04/18 15:04:58;;;;;;;5.50;4.43;;;;;;;;;;8420974;28;20249;-61
2022/04/18 15:08:59;;;;;;;4.88;3.97;;;;;;;;;;8438023;28;20046;-62
2022/04/18 15:13:00;;;;;;;7.93;4.40;;;;;;;;;;8459727;28;20423;-61
2022/04/18 15:17:02;;;;;;;6.27;4.13;;;;;;;;;;8464924;28;20259;-64
2022/04/18 15:21:04;;;;;;;5.95;4.10;;;;;;;;;;8444686;28;20765;-61
2022/04/18 15:25:06;;;;;;;5.75;4.18;;;;;;;;;;8447578;28;20020;-61
2022/04/18 15:29:07;;;;;;;5.43;4.20;;;;;;;;;;8446911;28;20030;-61
2022/04/18 15:33:08;;;;;;;7.35;4.85;;;;;;;;;;8431016;28;20123;-60
2022/04/18 15:37:11;;;;;;;8.13;5.05;;;;;;;;;;8431800;28;20103;-61
2022/04/18 15:41:12;;;;;;;9.82;5.45;;;;;;;;;;8432092;28;20035;-61
2022/04/18 15:45:13;;;;;;;9.47;5.83;;;;;;;;;;8429261;28;20055;-61
2022/04/18 15:49:14;;;;;;;14.60;6.78;;;;;;;;;;8432795;28;20692;-60
2022/04/18 15:53:15;;;;;;;12.77;7.13;;;;;;;;;;8429333;28;20028;-60
2022/04/18 15:57:16;;;;;;;13.40;6.55;;;;;;;;;;8430220;28;20157;-60
2022/04/18 16:01:17;;;;;;;16.95;6.63;;;;;;;;;;8447135;28;20063;-62
2022/04/18 16:05:18;;;;;;;13.77;6.77;;;;;;;;;;8429899;28;20387;-60
2022/04/18 16:09:19;;;;;;;13.93;6.10;;;;;;;;;;8432841;28;20271;-62
2022/04/18 16:13:20;;;;;;;14.40;6.20;;;;;;;;;;8445821;28;20111;-60
2022/04/18 16:17:21;;;;;;;16.87;6.90;;;;;;;;;;8431130;28;20029;-60
2022/04/18 16:21:21;;;;;;;12.13;5.73;;;;;;;;;;8444790;28;20644;-61
2022/04/18 16:25:22;;;;;;;17.07;6.67;;;;;;;;;;8431564;28;20035;-61
2022/04/18 16:33:47;;;;;;;15.60;7.05;;;;;;;;;;8432175;28;20046;-61
2022/04/18 16:37:49;;;;;;;14.77;6.70;;;;;;;;;;8463204;28;20024;-61
2022/04/18 16:46:09;;;;;;;17.13;7.57;;;;;;;;;;8464488;28;20101;-61
2022/04/18 16:50:10;;;;;;;19.48;7.47;;;;;;;;;;8469555;28;20031;-60
2022/04/18 16:54:11;;;;;;;15.30;7.30;;;;;;;;;;8453068;28;20049;-60
2022/04/18 16:58:12;;;;;;;17.98;6.65;;;;;;;;;;8470585;28;20458;-60
2022/04/18 17:02:14;;;;;;;16.90;7.37;;;;;;;;;;8468244;28;20153;-60
2022/04/18 17:06:15;;;;;;;13.35;5.75;;;;;;;;;;8451642;28;20051;-60
2022/04/18 17:10:17;;;;;;;16.00;6.87;;;;;;;;;;8452635;28;20429;-60
2022/04/18 17:14:18;;;;;;;17.55;7.03;;;;;;;;;;8451481;28;20031;-60
2022/04/18 17:18:19;;;;;;;15.70;7.03;;;;;;;;;;8470740;28;20446;-60
2022/04/18 17:22:20;;;;;;;17.93;6.30;;;;;;;;;;8450693;28;20035;-60
2022/04/18 17:26:21;;;;;;;19.80;7.37;;;;;;;;;;8463654;28;20428;-60
2022/04/18 17:30:22;;;;;;;17.70;7.77;;;;;;;;;;8468908;28;20413;-60
2022/04/18 17:34:23;;;;;;;16.87;7.53;;;;;;;;;;8468715;28;20036;-59
2022/04/18 17:38:25;;;;;;;15.95;7.10;;;;;;;;;;8467570;28;20477;-60
2022/04/18 17:42:26;;;;;;;18.85;8.48;;;;;;;;;;8468488;28;20036;-57
2022/04/18 17:46:27;;;;;;;20.13;8.50;;;;;;;;;;8469169;28;20094;-59
2022/04/18 17:50:28;;;;;;;22.40;9.33;;;;;;;;;;8467933;28;20412;-59
2022/04/18 17:58:48;;;;;;;19.00;8.15;;;;;;;;;;8469105;28;20069;-60
2022/04/18 18:02:49;;;;;;;19.13;8.70;;;;;;;;;;8469922;28;20032;-59
2022/04/18 18:06:50;;;;;;;22.00;7.97;;;;;;;;;;8451702;28;20031;-60
2022/04/18 18:10:52;;;;;;;19.47;8.47;;;;;;;;;;8469580;28;20051;-60
2022/04/18 18:14:54;;;;;;;17.27;7.28;;;;;;;;;;8469684;28;20020;-62
2022/04/18 18:18:55;;;;;;;21.60;6.75;;;;;;;;;;8469457;28;20081;-62
2022/04/18 18:22:57;;;;;;;18.00;7.17;;;;;;;;;;8469625;28;20077;-62
2022/04/18 18:26:58;;;;;;;15.55;6.38;;;;;;;;;;8469647;28;20102;-62
2022/04/18 18:30:59;;;;;;;19.27;7.30;;;;;;;;;;8468219;28;20402;-62
2022/04/18 18:34:59;;;;;;;25.63;6.60;;;;;;;;;;8465867;28;20028;-62
2022/04/18 18:39:00;;;;;;;17.77;6.43;;;;;;;;;;8467282;28;20157;-62
2022/04/18 18:43:02;;;;;;;17.70;6.73;;;;;;;;;;8465441;28;20035;-62
2022/04/18 18:47:03;;;;;;;16.05;6.22;;;;;;;;;;8449296;28;20389;-62
2022/04/18 18:55:24;;;;;;;12.63;6.20;;;;;;;;;;8464979;28;20053;-61
2022/04/18 18:59:25;;;;;;;15.90;6.73;;;;;;;;;;8467673;28;20103;-62
2022/04/18 19:03:26;;;;;;;14.17;5.93;;;;;;;;;;8467367;28;20031;-62
2022/04/18 19:07:28;;;;;;;11.90;6.27;;;;;;;;;;8467942;28;20055;-61
2022/04/18 19:11:30;;;;;;;13.48;6.03;;;;;;;;;;8464540;28;20024;-62
2022/04/18 19:15:31;;;;;;;;;;;;;;;;;;8466415;28;20497;-52
2022/04/18 19:28:11;;;;;;;14.77;6.32;;;;;;;;;;8451907;28;20096;-57
2022/04/18 19:32:12;;;;;;;13.23;5.23;;;;;;;;;;8459673;28;20387;-57
2022/04/18 19:36:18;;;;;;;10.43;5.27;;;;;;;;;;8463560;28;20483;-54
2022/04/18 19:40:18;;;;;;;12.57;6.07;;;;;;;;;;8465105;28;20039;-58
2022/04/18 19:44:19;;;;;;;10.80;5.67;;;;;;;;;;8463331;28;20098;-56
2022/04/18 19:48:20;;;;;;;12.70;5.07;;;;;;;;;;8465870;28;20068;-56
2022/04/18 19:52:21;;;;;;;11.00;5.47;;;;;;;;;;8464578;28;20035;-56
2022/04/18 19:56:22;;;;;;;10.73;4.97;;;;;;;;;;8464398;28;20529;-57
2022/04/18 20:00:26;;;;;;;9.87;5.50;;;;;;;;;;8462279;28;20065;-54
2022/04/18 20:04:28;;;;;;;8.80;4.53;;;;;;;;;;8459628;28;20028;-54
2022/04/18 20:08:29;;;;;;;7.53;4.53;;;;;;;;;;8464362;28;20024;-52
2022/04/18 20:12:32;;;;;;;6.47;4.30;;;;;;;;;;8464696;28;20131;-54
2022/04/18 20:16:33;;;;;;;11.23;5.15;;;;;;;;;;8465265;28;20482;-53
2022/04/18 20:20:34;;;;;;;9.60;5.00;;;;;;;;;;8465031;28;20039;-53
2022/04/18 20:24:35;;;;;;;17.13;1.70;;;;;;;;;;8464461;28;20107;-42
2022/04/18 20:28:36;;;;;;;9.45;1.42;;;;;;;;;;8462058;28;20083;-42
2022/04/18 20:32:37;;;;;;;5.27;1.50;;;;;;;;;;8430191;28;20097;-42
2022/04/18 20:36:39;;;;;;;2.22;1.38;;;;;;;;;;8431051;28;20084;-39
2022/04/18 20:40:40;;;;;;;3.13;1.10;;;;;;;;;;8430793;28;20043;-43
2022/04/18 20:44:41;;;;;;;3.88;1.30;;;;;;;;;;8430778;28;20055;-42
2022/04/18 20:48:42;;;;;;;2.37;1.30;;;;;;;;;;8428739;28;20028;-41
2022/04/18 20:58:30;;;;;;;1.48;1.20;;;;;;;;;;8430327;28;20062;-42
2022/04/18 21:01:29;;;;;;;1.65;1.13;;;;;;;;;;8430541;28;20540;-42
2022/04/18 21:05:30;;;;;;;4.57;1.35;;;;;;;;;;8429220;28;20050;-42
2022/04/18 21:09:33;;;;;;;1.70;1.00;;;;;;;;;;8431306;28;20032;-40
2022/04/18 21:13:34;;;;;;;2.25;1.20;;;;;;;;;;8426951;28;20044;-43
2022/04/18 21:17:35;;;;;;;4.82;1.30;;;;;;;;;;8430841;28;20481;-39
2022/04/18 21:21:38;;;;;;;3.50;1.25;;;;;;;;;;8414157;28;20039;-44
2022/04/18 21:25:40;;;;;;;2.90;1.15;;;;;;;;;;8428249;28;20028;-42
2022/04/18 21:29:40;;;;;;;1.20;1.10;;;;;;;;;;8433910;28;20048;-44
2022/04/18 21:33:42;;;;;;;1.65;1.05;;;;;;;;;;8462034;28;20031;-41
2022/04/18 21:37:43;;;;;;;2.05;1.10;;;;;;;;;;8471205;28;20416;-40
2022/04/18 21:41:44;;;;;;;4.03;2.40;;;;;;;;;;8469352;28;20035;-41
2022/04/18 21:45:45;;;;;;;4.22;1.38;;;;;;;;;;8467406;28;20024;-40
2022/04/18 21:49:46;;;;;;;1.35;1.23;;;;;;;;;;8464133;28;20470;-40
2022/04/18 21:53:47;;;;;;;1.10;1.00;;;;;;;;;;8466668;28;20032;-42
2022/04/18 21:57:48;;;;;;;1.63;0.95;;;;;;;;;;8451175;28;20126;-42
2022/04/18 22:01:49;;;;;;;2.45;1.30;;;;;;;;;;8468726;28;20035;-42
2022/04/18 22:05:50;;;;;;;2.83;1.20;;;;;;;;;;8469251;28;20451;-38
2022/04/18 22:09:51;;;;;;;1.52;1.10;;;;;;;;;;8470288;28;20034;-41
